Mariupol, Ukraine
Current Conditions -  °F | °C
As of 11:00 AM on Thursday 23 Oct 2014 (Local Time) from URRR Reporting Station
Overcast Overcast  
Wind Chill: 35°   Ceiling: 800
Heat Index: 43°   Visibility: 4mi
Dew Point: 39°   Wind: 18mph
Humidity: 87%   Direction: 50°NE
Pressure: 30"   Gusts: 25mph
Location:  47.1°N, 37.55°E
Report Text: URRR 230800Z 05008G11MPS 7000 OVC008 06/04 Q1016 04CLRD70 TEMPO0300 FG BKN002
Loading
Personal Weather Stations






























Interactive Weather Map
Tropical Storm Tracking
New forecast layout! Learn more

10-Day Weather Forecast

Advertisements
Track Severe Weather on mobile